sensor_id;sensor_type;location;lat;lon;timestamp;P1;durP1;ratioP1;P2;durP2;ratioP2
25127;SDS011;13107;51.304;6.866;2023-08-08T00:03:28;2.83;;;1.65;;
25127;SDS011;13107;51.304;6.866;2023-08-08T00:07:30;2.65;;;1.10;;
25127;SDS011;13107;51.304;6.866;2023-08-08T00:11:32;2.15;;;1.20;;
25127;SDS011;13107;51.304;6.866;2023-08-08T00:15:34;2.10;;;1.23;;
25127;SDS011;13107;51.304;6.866;2023-08-08T00:19:36;2.62;;;1.25;;
25127;SDS011;13107;51.304;6.866;2023-08-08T00:23:38;1.90;;;1.10;;
25127;SDS011;13107;51.304;6.866;2023-08-08T00:27:39;5.82;;;1.60;;
25127;SDS011;13107;51.304;6.866;2023-08-08T00:31:44;3.17;;;1.15;;
25127;SDS011;13107;51.304;6.866;2023-08-08T00:35:46;4.32;;;1.48;;
25127;SDS011;13107;51.304;6.866;2023-08-08T00:39:48;2.30;;;1.37;;
25127;SDS011;13107;51.304;6.866;2023-08-08T00:43:50;2.33;;;1.35;;
25127;SDS011;13107;51.304;6.866;2023-08-08T00:47:51;3.20;;;1.52;;
25127;SDS011;13107;51.304;6.866;2023-08-08T00:51:54;3.42;;;1.45;;
25127;SDS011;13107;51.304;6.866;2023-08-08T00:55:56;5.70;;;1.60;;
25127;SDS011;13107;51.304;6.866;2023-08-08T00:59:59;4.82;;;1.50;;
25127;SDS011;13107;51.304;6.866;2023-08-08T01:04:00;4.43;;;1.80;;
25127;SDS011;13107;51.304;6.866;2023-08-08T01:08:03;4.72;;;1.60;;
25127;SDS011;13107;51.304;6.866;2023-08-08T01:12:07;4.53;;;1.70;;
25127;SDS011;13107;51.304;6.866;2023-08-08T01:16:12;5.32;;;2.00;;
25127;SDS011;13107;51.304;6.866;2023-08-08T01:20:14;7.75;;;2.03;;
25127;SDS011;13107;51.304;6.866;2023-08-08T01:28:23;5.53;;;2.28;;
25127;SDS011;13107;51.304;6.866;2023-08-08T01:32:25;3.78;;;1.80;;
25127;SDS011;13107;51.304;6.866;2023-08-08T01:41:05;6.07;;;2.10;;
25127;SDS011;13107;51.304;6.866;2023-08-08T01:45:08;3.35;;;2.10;;
25127;SDS011;13107;51.304;6.866;2023-08-08T01:49:11;5.82;;;2.33;;
25127;SDS011;13107;51.304;6.866;2023-08-08T01:53:12;5.55;;;2.00;;
25127;SDS011;13107;51.304;6.866;2023-08-08T01:57:14;5.55;;;2.45;;
25127;SDS011;13107;51.304;6.866;2023-08-08T02:01:16;7.55;;;2.62;;
25127;SDS011;13107;51.304;6.866;2023-08-08T02:05:18;6.00;;;1.83;;
25127;SDS011;13107;51.304;6.866;2023-08-08T02:09:20;6.82;;;2.25;;
25127;SDS011;13107;51.304;6.866;2023-08-08T02:13:22;4.20;;;2.33;;
25127;SDS011;13107;51.304;6.866;2023-08-08T02:17:24;3.42;;;2.25;;
25127;SDS011;13107;51.304;6.866;2023-08-08T02:21:27;5.57;;;2.03;;
25127;SDS011;13107;51.304;6.866;2023-08-08T02:25:29;5.87;;;2.20;;
25127;SDS011;13107;51.304;6.866;2023-08-08T02:29:32;5.40;;;2.28;;
25127;SDS011;13107;51.304;6.866;2023-08-08T02:33:33;6.28;;;2.47;;
25127;SDS011;13107;51.304;6.866;2023-08-08T02:37:35;4.50;;;2.03;;
25127;SDS011;13107;51.304;6.866;2023-08-08T02:41:37;6.12;;;2.50;;
25127;SDS011;13107;51.304;6.866;2023-08-08T02:45:38;6.05;;;1.98;;
25127;SDS011;13107;51.304;6.866;2023-08-08T02:49:40;5.25;;;2.25;;
25127;SDS011;13107;51.304;6.866;2023-08-08T02:53:42;7.03;;;2.22;;
25127;SDS011;13107;51.304;6.866;2023-08-08T02:57:44;3.95;;;2.08;;
25127;SDS011;13107;51.304;6.866;2023-08-08T03:01:46;4.37;;;2.03;;
25127;SDS011;13107;51.304;6.866;2023-08-08T03:05:48;4.85;;;2.08;;
25127;SDS011;13107;51.304;6.866;2023-08-08T03:09:50;4.85;;;1.90;;
25127;SDS011;13107;51.304;6.866;2023-08-08T03:13:52;4.20;;;2.10;;
25127;SDS011;13107;51.304;6.866;2023-08-08T03:17:54;5.22;;;2.15;;
25127;SDS011;13107;51.304;6.866;2023-08-08T03:21:57;4.22;;;1.90;;
25127;SDS011;13107;51.304;6.866;2023-08-08T03:25:59;5.30;;;2.15;;
25127;SDS011;13107;51.304;6.866;2023-08-08T03:30:01;5.47;;;2.00;;
25127;SDS011;13107;51.304;6.866;2023-08-08T03:34:03;6.05;;;2.28;;
25127;SDS011;13107;51.304;6.866;2023-08-08T03:38:05;6.72;;;1.90;;
25127;SDS011;13107;51.304;6.866;2023-08-08T03:42:08;4.32;;;2.62;;
25127;SDS011;13107;51.304;6.866;2023-08-08T03:46:09;6.50;;;1.73;;
25127;SDS011;13107;51.304;6.866;2023-08-08T03:50:12;4.85;;;2.05;;
25127;SDS011;13107;51.304;6.866;2023-08-08T03:54:14;3.78;;;1.80;;
25127;SDS011;13107;51.304;6.866;2023-08-08T03:58:16;3.90;;;2.03;;
25127;SDS011;13107;51.304;6.866;2023-08-08T04:02:19;6.12;;;2.30;;
25127;SDS011;13107;51.304;6.866;2023-08-08T04:06:20;10.52;;;2.35;;
25127;SDS011;13107;51.304;6.866;2023-08-08T04:10:22;8.43;;;2.00;;
25127;SDS011;13107;51.304;6.866;2023-08-08T04:14:24;10.27;;;2.30;;
25127;SDS011;13107;51.304;6.866;2023-08-08T04:18:26;4.78;;;2.22;;
25127;SDS011;13107;51.304;6.866;2023-08-08T04:22:27;7.68;;;2.53;;
25127;SDS011;13107;51.304;6.866;2023-08-08T04:26:29;6.00;;;2.30;;
25127;SDS011;13107;51.304;6.866;2023-08-08T04:30:31;11.18;;;3.25;;
25127;SDS011;13107;51.304;6.866;2023-08-08T04:34:33;10.93;;;3.42;;
25127;SDS011;13107;51.304;6.866;2023-08-08T04:38:34;10.25;;;3.67;;
25127;SDS011;13107;51.304;6.866;2023-08-08T04:42:36;11.85;;;3.20;;
25127;SDS011;13107;51.304;6.866;2023-08-08T04:46:38;11.52;;;4.37;;
25127;SDS011;13107;51.304;6.866;2023-08-08T04:50:40;10.07;;;3.97;;
25127;SDS011;13107;51.304;6.866;2023-08-08T04:54:42;10.82;;;3.97;;
25127;SDS011;13107;51.304;6.866;2023-08-08T04:58:45;11.38;;;3.85;;
25127;SDS011;13107;51.304;6.866;2023-08-08T05:02:47;13.80;;;4.50;;
25127;SDS011;13107;51.304;6.866;2023-08-08T05:06:48;7.43;;;4.32;;
25127;SDS011;13107;51.304;6.866;2023-08-08T05:10:50;14.15;;;4.62;;
25127;SDS011;13107;51.304;6.866;2023-08-08T05:14:52;10.40;;;4.32;;
25127;SDS011;13107;51.304;6.866;2023-08-08T05:18:54;8.07;;;3.95;;
25127;SDS011;13107;51.304;6.866;2023-08-08T05:22:55;12.63;;;4.60;;
25127;SDS011;13107;51.304;6.866;2023-08-08T05:26:57;11.48;;;4.18;;
25127;SDS011;13107;51.304;6.866;2023-08-08T05:30:59;12.73;;;3.90;;
25127;SDS011;13107;51.304;6.866;2023-08-08T05:35:01;11.95;;;4.78;;
25127;SDS011;13107;51.304;6.866;2023-08-08T05:39:05;11.65;;;4.12;;
25127;SDS011;13107;51.304;6.866;2023-08-08T05:43:08;11.48;;;3.92;;
25127;SDS011;13107;51.304;6.866;2023-08-08T05:47:10;12.65;;;4.62;;
25127;SDS011;13107;51.304;6.866;2023-08-08T05:51:12;13.82;;;4.78;;
25127;SDS011;13107;51.304;6.866;2023-08-08T05:55:14;15.60;;;5.05;;
25127;SDS011;13107;51.304;6.866;2023-08-08T05:59:15;14.23;;;5.12;;
25127;SDS011;13107;51.304;6.866;2023-08-08T06:03:17;10.45;;;5.68;;
25127;SDS011;13107;51.304;6.866;2023-08-08T06:07:19;15.98;;;5.80;;
25127;SDS011;13107;51.304;6.866;2023-08-08T06:11:21;11.00;;;5.45;;
25127;SDS011;13107;51.304;6.866;2023-08-08T06:15:23;14.80;;;6.68;;
25127;SDS011;13107;51.304;6.866;2023-08-08T06:19:24;8.30;;;5.57;;
25127;SDS011;13107;51.304;6.866;2023-08-08T06:23:26;16.92;;;6.45;;
25127;SDS011;13107;51.304;6.866;2023-08-08T06:27:28;16.30;;;7.22;;
25127;SDS011;13107;51.304;6.866;2023-08-08T06:31:30;13.85;;;7.25;;
25127;SDS011;13107;51.304;6.866;2023-08-08T06:35:32;16.73;;;6.53;;
25127;SDS011;13107;51.304;6.866;2023-08-08T06:39:33;11.23;;;6.25;;
25127;SDS011;13107;51.304;6.866;2023-08-08T06:43:36;21.65;;;6.53;;
25127;SDS011;13107;51.304;6.866;2023-08-08T06:47:37;12.43;;;6.15;;
25127;SDS011;13107;51.304;6.866;2023-08-08T06:51:39;12.15;;;6.53;;
25127;SDS011;13107;51.304;6.866;2023-08-08T06:55:41;11.48;;;5.43;;
25127;SDS011;13107;51.304;6.866;2023-08-08T06:59:43;10.13;;;5.50;;
25127;SDS011;13107;51.304;6.866;2023-08-08T07:03:45;12.50;;;5.15;;
25127;SDS011;13107;51.304;6.866;2023-08-08T07:07:49;14.00;;;6.35;;
25127;SDS011;13107;51.304;6.866;2023-08-08T07:11:51;12.48;;;5.43;;
25127;SDS011;13107;51.304;6.866;2023-08-08T07:15:53;12.10;;;6.03;;
25127;SDS011;13107;51.304;6.866;2023-08-08T07:19:55;9.95;;;5.15;;
25127;SDS011;13107;51.304;6.866;2023-08-08T07:23:57;11.77;;;4.85;;
25127;SDS011;13107;51.304;6.866;2023-08-08T07:27:59;11.12;;;4.90;;
25127;SDS011;13107;51.304;6.866;2023-08-08T07:32:02;13.07;;;5.12;;
25127;SDS011;13107;51.304;6.866;2023-08-08T07:36:05;10.07;;;4.40;;
25127;SDS011;13107;51.304;6.866;2023-08-08T07:40:13;10.00;;;4.37;;
25127;SDS011;13107;51.304;6.866;2023-08-08T07:44:21;10.85;;;4.28;;
25127;SDS011;13107;51.304;6.866;2023-08-08T07:48:23;9.38;;;4.45;;
25127;SDS011;13107;51.304;6.866;2023-08-08T07:52:25;9.77;;;4.05;;
25127;SDS011;13107;51.304;6.866;2023-08-08T07:56:26;8.85;;;4.40;;
25127;SDS011;13107;51.304;6.866;2023-08-08T08:00:28;9.95;;;3.45;;
25127;SDS011;13107;51.304;6.866;2023-08-08T08:04:30;9.45;;;3.60;;
25127;SDS011;13107;51.304;6.866;2023-08-08T08:08:31;8.52;;;3.50;;
25127;SDS011;13107;51.304;6.866;2023-08-08T08:12:34;11.05;;;3.35;;
25127;SDS011;13107;51.304;6.866;2023-08-08T08:16:36;8.48;;;3.60;;
25127;SDS011;13107;51.304;6.866;2023-08-08T08:20:38;12.37;;;3.20;;
25127;SDS011;13107;51.304;6.866;2023-08-08T08:24:40;8.90;;;3.10;;
25127;SDS011;13107;51.304;6.866;2023-08-08T08:28:42;10.52;;;2.83;;
25127;SDS011;13107;51.304;6.866;2023-08-08T08:32:43;7.18;;;2.67;;
25127;SDS011;13107;51.304;6.866;2023-08-08T08:36:45;7.15;;;2.83;;
25127;SDS011;13107;51.304;6.866;2023-08-08T08:40:47;8.52;;;2.53;;
25127;SDS011;13107;51.304;6.866;2023-08-08T08:44:50;7.40;;;2.62;;
25127;SDS011;13107;51.304;6.866;2023-08-08T08:48:54;9.35;;;3.05;;
25127;SDS011;13107;51.304;6.866;2023-08-08T08:52:57;8.77;;;2.42;;
25127;SDS011;13107;51.304;6.866;2023-08-08T08:57:01;7.90;;;2.45;;
25127;SDS011;13107;51.304;6.866;2023-08-08T09:01:03;6.80;;;2.58;;
25127;SDS011;13107;51.304;6.866;2023-08-08T09:05:05;6.97;;;2.30;;
25127;SDS011;13107;51.304;6.866;2023-08-08T09:09:07;7.12;;;2.10;;
25127;SDS011;13107;51.304;6.866;2023-08-08T09:13:17;6.40;;;2.35;;
25127;SDS011;13107;51.304;6.866;2023-08-08T09:17:18;9.50;;;2.40;;
25127;SDS011;13107;51.304;6.866;2023-08-08T09:21:24;11.75;;;2.90;;
25127;SDS011;13107;51.304;6.866;2023-08-08T09:25:25;9.93;;;3.03;;
25127;SDS011;13107;51.304;6.866;2023-08-08T09:29:27;12.48;;;3.33;;
25127;SDS011;13107;51.304;6.866;2023-08-08T09:33:29;8.73;;;2.80;;
25127;SDS011;13107;51.304;6.866;2023-08-08T09:37:31;8.20;;;2.70;;
25127;SDS011;13107;51.304;6.866;2023-08-08T09:41:33;9.30;;;2.70;;
25127;SDS011;13107;51.304;6.866;2023-08-08T09:45:36;6.50;;;2.15;;
25127;SDS011;13107;51.304;6.866;2023-08-08T09:49:39;6.82;;;2.67;;
25127;SDS011;13107;51.304;6.866;2023-08-08T09:53:41;8.73;;;2.00;;
25127;SDS011;13107;51.304;6.866;2023-08-08T09:57:43;6.93;;;2.40;;
25127;SDS011;13107;51.304;6.866;2023-08-08T10:01:46;8.13;;;2.00;;
25127;SDS011;13107;51.304;6.866;2023-08-08T10:05:49;8.60;;;2.08;;
25127;SDS011;13107;51.304;6.866;2023-08-08T10:09:50;7.75;;;2.03;;
25127;SDS011;13107;51.304;6.866;2023-08-08T10:13:53;4.78;;;2.47;;
25127;SDS011;13107;51.304;6.866;2023-08-08T10:17:55;5.05;;;2.37;;
25127;SDS011;13107;51.304;6.866;2023-08-08T10:21:59;6.25;;;2.03;;
25127;SDS011;13107;51.304;6.866;2023-08-08T10:26:17;5.40;;;1.80;;
25127;SDS011;13107;51.304;6.866;2023-08-08T10:30:20;5.90;;;2.10;;
25127;SDS011;13107;51.304;6.866;2023-08-08T10:34:26;5.75;;;2.58;;
25127;SDS011;13107;51.304;6.866;2023-08-08T10:42:51;5.47;;;1.80;;
25127;SDS011;13107;51.304;6.866;2023-08-08T10:46:53;5.90;;;1.62;;
25127;SDS011;13107;51.304;6.866;2023-08-08T10:50:58;5.75;;;1.98;;
25127;SDS011;13107;51.304;6.866;2023-08-08T10:55:01;6.47;;;1.95;;
25127;SDS011;13107;51.304;6.866;2023-08-08T10:59:14;4.53;;;1.90;;
25127;SDS011;13107;51.304;6.866;2023-08-08T11:03:23;6.95;;;2.45;;
25127;SDS011;13107;51.304;6.866;2023-08-08T11:07:26;6.12;;;2.47;;
25127;SDS011;13107;51.304;6.866;2023-08-08T11:11:35;11.57;;;2.80;;
25127;SDS011;13107;51.304;6.866;2023-08-08T11:15:38;8.15;;;2.70;;
25127;SDS011;13107;51.304;6.866;2023-08-08T11:19:40;10.55;;;2.40;;
25127;SDS011;13107;51.304;6.866;2023-08-08T11:23:44;6.00;;;2.40;;
25127;SDS011;13107;51.304;6.866;2023-08-08T11:27:51;7.35;;;2.37;;
25127;SDS011;13107;51.304;6.866;2023-08-08T11:31:53;6.40;;;2.67;;
25127;SDS011;13107;51.304;6.866;2023-08-08T11:35:55;7.15;;;2.30;;
25127;SDS011;13107;51.304;6.866;2023-08-08T11:39:57;6.97;;;2.28;;
25127;SDS011;13107;51.304;6.866;2023-08-08T11:44:00;7.37;;;2.25;;
25127;SDS011;13107;51.304;6.866;2023-08-08T11:48:03;10.35;;;2.42;;
25127;SDS011;13107;51.304;6.866;2023-08-08T11:52:06;5.57;;;2.10;;
25127;SDS011;13107;51.304;6.866;2023-08-08T11:56:08;5.32;;;1.98;;
25127;SDS011;13107;51.304;6.866;2023-08-08T12:00:10;5.93;;;1.77;;
25127;SDS011;13107;51.304;6.866;2023-08-08T12:04:16;6.60;;;2.62;;
25127;SDS011;13107;51.304;6.866;2023-08-08T12:08:21;6.03;;;2.30;;
25127;SDS011;13107;51.304;6.866;2023-08-08T12:12:25;7.95;;;2.75;;
25127;SDS011;13107;51.304;6.866;2023-08-08T12:16:28;6.47;;;3.15;;
25127;SDS011;13107;51.304;6.866;2023-08-08T12:20:35;12.85;;;3.30;;
25127;SDS011;13107;51.304;6.866;2023-08-08T12:24:36;5.87;;;2.80;;
25127;SDS011;13107;51.304;6.866;2023-08-08T12:28:38;8.73;;;2.58;;
25127;SDS011;13107;51.304;6.866;2023-08-08T12:32:41;7.20;;;2.45;;
25127;SDS011;13107;51.304;6.866;2023-08-08T12:36:42;7.32;;;2.22;;
25127;SDS011;13107;51.304;6.866;2023-08-08T12:40:44;6.87;;;2.05;;
25127;SDS011;13107;51.304;6.866;2023-08-08T12:44:46;5.47;;;2.08;;
25127;SDS011;13107;51.304;6.866;2023-08-08T12:48:48;5.62;;;2.10;;
25127;SDS011;13107;51.304;6.866;2023-08-08T12:52:50;5.55;;;1.98;;
25127;SDS011;13107;51.304;6.866;2023-08-08T12:56:51;4.55;;;2.00;;
25127;SDS011;13107;51.304;6.866;2023-08-08T13:00:53;5.45;;;1.90;;
25127;SDS011;13107;51.304;6.866;2023-08-08T13:04:55;5.03;;;2.22;;
25127;SDS011;13107;51.304;6.866;2023-08-08T13:08:57;4.53;;;2.03;;
25127;SDS011;13107;51.304;6.866;2023-08-08T13:12:58;3.92;;;1.90;;
25127;SDS011;13107;51.304;6.866;2023-08-08T13:17:00;7.55;;;1.87;;
25127;SDS011;13107;51.304;6.866;2023-08-08T13:21:03;7.32;;;1.90;;
25127;SDS011;13107;51.304;6.866;2023-08-08T13:25:07;8.32;;;2.00;;
25127;SDS011;13107;51.304;6.866;2023-08-08T13:29:09;6.05;;;2.00;;
25127;SDS011;13107;51.304;6.866;2023-08-08T13:33:13;4.07;;;1.62;;
25127;SDS011;13107;51.304;6.866;2023-08-08T13:37:15;4.37;;;1.95;;
25127;SDS011;13107;51.304;6.866;2023-08-08T13:41:17;7.47;;;2.12;;
25127;SDS011;13107;51.304;6.866;2023-08-08T13:45:18;4.65;;;1.60;;
25127;SDS011;13107;51.304;6.866;2023-08-08T13:49:22;3.45;;;1.42;;
25127;SDS011;13107;51.304;6.866;2023-08-08T13:53:27;3.85;;;1.95;;
25127;SDS011;13107;51.304;6.866;2023-08-08T13:57:29;6.95;;;2.15;;
25127;SDS011;13107;51.304;6.866;2023-08-08T14:01:31;4.03;;;1.83;;
25127;SDS011;13107;51.304;6.866;2023-08-08T14:05:33;7.15;;;2.20;;
25127;SDS011;13107;51.304;6.866;2023-08-08T14:09:35;7.57;;;1.83;;
25127;SDS011;13107;51.304;6.866;2023-08-08T14:13:36;6.07;;;1.80;;
25127;SDS011;13107;51.304;6.866;2023-08-08T14:17:39;9.60;;;2.35;;
25127;SDS011;13107;51.304;6.866;2023-08-08T14:21:41;8.63;;;2.50;;
25127;SDS011;13107;51.304;6.866;2023-08-08T14:25:43;6.12;;;2.10;;
25127;SDS011;13107;51.304;6.866;2023-08-08T14:29:44;6.53;;;2.25;;
25127;SDS011;13107;51.304;6.866;2023-08-08T14:33:46;4.55;;;2.12;;
25127;SDS011;13107;51.304;6.866;2023-08-08T14:37:48;5.15;;;1.95;;
25127;SDS011;13107;51.304;6.866;2023-08-08T14:41:50;3.42;;;1.80;;
25127;SDS011;13107;51.304;6.866;2023-08-08T14:45:52;6.18;;;2.10;;
25127;SDS011;13107;51.304;6.866;2023-08-08T14:49:54;6.90;;;2.20;;
25127;SDS011;13107;51.304;6.866;2023-08-08T14:53:55;5.40;;;1.62;;
25127;SDS011;13107;51.304;6.866;2023-08-08T14:57:57;3.55;;;1.30;;
25127;SDS011;13107;51.304;6.866;2023-08-08T15:01:59;2.65;;;1.02;;
25127;SDS011;13107;51.304;6.866;2023-08-08T15:06:01;3.55;;;1.15;;
25127;SDS011;13107;51.304;6.866;2023-08-08T15:10:02;5.28;;;1.10;;
25127;SDS011;13107;51.304;6.866;2023-08-08T15:14:04;2.25;;;0.90;;
25127;SDS011;13107;51.304;6.866;2023-08-08T15:18:06;4.10;;;1.10;;
25127;SDS011;13107;51.304;6.866;2023-08-08T15:22:08;3.80;;;1.15;;
25127;SDS011;13107;51.304;6.866;2023-08-08T15:26:10;3.20;;;0.90;;
25127;SDS011;13107;51.304;6.866;2023-08-08T15:30:11;1.62;;;0.70;;
25127;SDS011;13107;51.304;6.866;2023-08-08T15:34:13;2.95;;;0.80;;
25127;SDS011;13107;51.304;6.866;2023-08-08T15:38:15;2.22;;;0.80;;
25127;SDS011;13107;51.304;6.866;2023-08-08T15:42:17;6.22;;;0.85;;
25127;SDS011;13107;51.304;6.866;2023-08-08T15:46:19;13.57;;;2.20;;
25127;SDS011;13107;51.304;6.866;2023-08-08T15:50:20;3.90;;;1.30;;
25127;SDS011;13107;51.304;6.866;2023-08-08T15:54:22;3.20;;;1.17;;
25127;SDS011;13107;51.304;6.866;2023-08-08T15:58:25;5.97;;;1.90;;
25127;SDS011;13107;51.304;6.866;2023-08-08T16:02:27;2.83;;;1.00;;
25127;SDS011;13107;51.304;6.866;2023-08-08T16:06:29;4.80;;;0.90;;
25127;SDS011;13107;51.304;6.866;2023-08-08T16:10:30;2.83;;;1.40;;
25127;SDS011;13107;51.304;6.866;2023-08-08T16:14:32;2.97;;;1.23;;
25127;SDS011;13107;51.304;6.866;2023-08-08T16:18:34;4.57;;;1.20;;
25127;SDS011;13107;51.304;6.866;2023-08-08T16:22:36;5.10;;;1.17;;
25127;SDS011;13107;51.304;6.866;2023-08-08T16:26:37;5.53;;;0.98;;
25127;SDS011;13107;51.304;6.866;2023-08-08T16:30:39;3.33;;;1.30;;
25127;SDS011;13107;51.304;6.866;2023-08-08T16:34:41;3.62;;;1.17;;
25127;SDS011;13107;51.304;6.866;2023-08-08T16:38:43;5.53;;;0.90;;
25127;SDS011;13107;51.304;6.866;2023-08-08T16:42:44;4.47;;;1.10;;
25127;SDS011;13107;51.304;6.866;2023-08-08T16:46:46;4.55;;;1.20;;
25127;SDS011;13107;51.304;6.866;2023-08-08T16:50:48;4.37;;;1.30;;
25127;SDS011;13107;51.304;6.866;2023-08-08T16:54:51;3.42;;;1.10;;
25127;SDS011;13107;51.304;6.866;2023-08-08T16:58:55;2.08;;;1.20;;
25127;SDS011;13107;51.304;6.866;2023-08-08T17:02:57;4.00;;;1.27;;
25127;SDS011;13107;51.304;6.866;2023-08-08T17:06:59;5.30;;;1.27;;
25127;SDS011;13107;51.304;6.866;2023-08-08T17:11:00;4.45;;;1.50;;
25127;SDS011;13107;51.304;6.866;2023-08-08T17:15:02;2.95;;;1.10;;
25127;SDS011;13107;51.304;6.866;2023-08-08T17:19:05;2.78;;;1.40;;
25127;SDS011;13107;51.304;6.866;2023-08-08T17:23:07;2.62;;;1.70;;
25127;SDS011;13107;51.304;6.866;2023-08-08T17:27:09;6.00;;;2.33;;
25127;SDS011;13107;51.304;6.866;2023-08-08T17:31:12;4.45;;;2.10;;
25127;SDS011;13107;51.304;6.866;2023-08-08T17:35:13;2.80;;;2.42;;
25127;SDS011;13107;51.304;6.866;2023-08-08T17:39:15;4.60;;;2.70;;
25127;SDS011;13107;51.304;6.866;2023-08-08T17:43:17;4.93;;;2.70;;
25127;SDS011;13107;51.304;6.866;2023-08-08T17:47:19;4.40;;;2.45;;
25127;SDS011;13107;51.304;6.866;2023-08-08T17:51:20;5.47;;;2.72;;
25127;SDS011;13107;51.304;6.866;2023-08-08T17:55:23;4.50;;;2.65;;
25127;SDS011;13107;51.304;6.866;2023-08-08T17:59:25;5.62;;;2.47;;
25127;SDS011;13107;51.304;6.866;2023-08-08T18:03:31;3.75;;;2.40;;
25127;SDS011;13107;51.304;6.866;2023-08-08T18:07:33;6.15;;;2.95;;
25127;SDS011;13107;51.304;6.866;2023-08-08T18:11:35;5.07;;;3.15;;
25127;SDS011;13107;51.304;6.866;2023-08-08T18:15:39;2.90;;;2.70;;
25127;SDS011;13107;51.304;6.866;2023-08-08T18:19:41;4.97;;;3.20;;
25127;SDS011;13107;51.304;6.866;2023-08-08T18:23:43;9.38;;;3.58;;
25127;SDS011;13107;51.304;6.866;2023-08-08T18:27:44;3.58;;;2.65;;
25127;SDS011;13107;51.304;6.866;2023-08-08T18:31:46;4.10;;;3.30;;
25127;SDS011;13107;51.304;6.866;2023-08-08T18:35:48;5.78;;;3.00;;
25127;SDS011;13107;51.304;6.866;2023-08-08T18:39:50;4.72;;;3.17;;
25127;SDS011;13107;51.304;6.866;2023-08-08T18:43:51;4.37;;;3.37;;
25127;SDS011;13107;51.304;6.866;2023-08-08T18:47:53;4.95;;;3.67;;
25127;SDS011;13107;51.304;6.866;2023-08-08T18:51:55;5.07;;;3.20;;
25127;SDS011;13107;51.304;6.866;2023-08-08T18:55:57;6.30;;;3.22;;
25127;SDS011;13107;51.304;6.866;2023-08-08T18:59:59;5.03;;;3.00;;
25127;SDS011;13107;51.304;6.866;2023-08-08T19:04:01;4.07;;;2.95;;
25127;SDS011;13107;51.304;6.866;2023-08-08T19:08:03;5.47;;;3.22;;
25127;SDS011;13107;51.304;6.866;2023-08-08T19:12:05;4.47;;;3.42;;
25127;SDS011;13107;51.304;6.866;2023-08-08T19:16:06;5.18;;;3.05;;
25127;SDS011;13107;51.304;6.866;2023-08-08T19:20:08;4.20;;;3.30;;
25127;SDS011;13107;51.304;6.866;2023-08-08T19:24:10;4.87;;;3.35;;
25127;SDS011;13107;51.304;6.866;2023-08-08T19:28:12;4.30;;;3.22;;
25127;SDS011;13107;51.304;6.866;2023-08-08T19:32:14;4.68;;;3.45;;
25127;SDS011;13107;51.304;6.866;2023-08-08T19:36:15;6.12;;;3.55;;
25127;SDS011;13107;51.304;6.866;2023-08-08T19:40:17;6.37;;;4.10;;
25127;SDS011;13107;51.304;6.866;2023-08-08T19:44:20;6.75;;;3.85;;
25127;SDS011;13107;51.304;6.866;2023-08-08T19:48:22;6.47;;;3.67;;
25127;SDS011;13107;51.304;6.866;2023-08-08T19:52:23;5.90;;;4.32;;
25127;SDS011;13107;51.304;6.866;2023-08-08T19:56:25;5.28;;;4.00;;
25127;SDS011;13107;51.304;6.866;2023-08-08T20:00:27;6.20;;;3.78;;
25127;SDS011;13107;51.304;6.866;2023-08-08T20:04:29;7.12;;;4.45;;
25127;SDS011;13107;51.304;6.866;2023-08-08T20:08:31;5.57;;;4.50;;
25127;SDS011;13107;51.304;6.866;2023-08-08T20:12:33;7.25;;;5.47;;
25127;SDS011;13107;51.304;6.866;2023-08-08T20:16:36;5.15;;;4.65;;
25127;SDS011;13107;51.304;6.866;2023-08-08T20:20:37;7.50;;;6.03;;
25127;SDS011;13107;51.304;6.866;2023-08-08T20:24:39;6.78;;;4.90;;
25127;SDS011;13107;51.304;6.866;2023-08-08T20:28:41;6.28;;;5.53;;
25127;SDS011;13107;51.304;6.866;2023-08-08T20:32:43;6.40;;;4.70;;
25127;SDS011;13107;51.304;6.866;2023-08-08T20:36:46;5.35;;;4.70;;
25127;SDS011;13107;51.304;6.866;2023-08-08T20:40:48;6.60;;;5.15;;
25127;SDS011;13107;51.304;6.866;2023-08-08T20:44:51;7.47;;;5.25;;
25127;SDS011;13107;51.304;6.866;2023-08-08T20:48:53;7.68;;;5.50;;
25127;SDS011;13107;51.304;6.866;2023-08-08T20:52:56;5.60;;;5.03;;
25127;SDS011;13107;51.304;6.866;2023-08-08T20:56:59;7.05;;;4.85;;
25127;SDS011;13107;51.304;6.866;2023-08-08T21:01:01;5.93;;;4.45;;
25127;SDS011;13107;51.304;6.866;2023-08-08T21:05:03;6.00;;;4.50;;
25127;SDS011;13107;51.304;6.866;2023-08-08T21:09:06;6.40;;;4.43;;
25127;SDS011;13107;51.304;6.866;2023-08-08T21:13:08;6.03;;;4.53;;
25127;SDS011;13107;51.304;6.866;2023-08-08T21:17:10;8.15;;;4.72;;
25127;SDS011;13107;51.304;6.866;2023-08-08T21:21:11;7.18;;;4.45;;
25127;SDS011;13107;51.304;6.866;2023-08-08T21:25:14;6.68;;;4.00;;
25127;SDS011;13107;51.304;6.866;2023-08-08T21:29:16;7.07;;;4.07;;
25127;SDS011;13107;51.304;6.866;2023-08-08T21:33:17;4.12;;;3.35;;
25127;SDS011;13107;51.304;6.866;2023-08-08T21:37:19;5.93;;;3.28;;
25127;SDS011;13107;51.304;6.866;2023-08-08T21:41:21;3.58;;;3.20;;
25127;SDS011;13107;51.304;6.866;2023-08-08T21:45:22;4.22;;;2.87;;
25127;SDS011;13107;51.304;6.866;2023-08-08T21:49:24;4.45;;;2.80;;
25127;SDS011;13107;51.304;6.866;2023-08-08T21:53:26;4.35;;;2.45;;
25127;SDS011;13107;51.304;6.866;2023-08-08T21:57:28;3.92;;;2.28;;
25127;SDS011;13107;51.304;6.866;2023-08-08T22:01:30;4.53;;;2.60;;
25127;SDS011;13107;51.304;6.866;2023-08-08T22:05:31;3.72;;;2.33;;
25127;SDS011;13107;51.304;6.866;2023-08-08T22:09:33;2.87;;;2.50;;
25127;SDS011;13107;51.304;6.866;2023-08-08T22:13:35;3.45;;;2.42;;
25127;SDS011;13107;51.304;6.866;2023-08-08T22:17:37;3.58;;;2.40;;
25127;SDS011;13107;51.304;6.866;2023-08-08T22:21:40;3.67;;;2.30;;
25127;SDS011;13107;51.304;6.866;2023-08-08T22:25:42;3.70;;;2.45;;
25127;SDS011;13107;51.304;6.866;2023-08-08T22:29:44;3.03;;;1.90;;
25127;SDS011;13107;51.304;6.866;2023-08-08T22:33:45;4.50;;;2.78;;
25127;SDS011;13107;51.304;6.866;2023-08-08T22:37:47;4.25;;;2.42;;
25127;SDS011;13107;51.304;6.866;2023-08-08T22:41:49;7.47;;;2.25;;
25127;SDS011;13107;51.304;6.866;2023-08-08T22:45:50;5.00;;;2.28;;
25127;SDS011;13107;51.304;6.866;2023-08-08T22:49:52;4.30;;;2.40;;
25127;SDS011;13107;51.304;6.866;2023-08-08T22:53:54;4.47;;;2.78;;
25127;SDS011;13107;51.304;6.866;2023-08-08T22:57:56;5.03;;;2.65;;
25127;SDS011;13107;51.304;6.866;2023-08-08T23:01:57;2.95;;;2.50;;
25127;SDS011;13107;51.304;6.866;2023-08-08T23:06:01;4.30;;;2.87;;
25127;SDS011;13107;51.304;6.866;2023-08-08T23:10:03;4.90;;;3.00;;
25127;SDS011;13107;51.304;6.866;2023-08-08T23:14:05;5.80;;;3.30;;
25127;SDS011;13107;51.304;6.866;2023-08-08T23:18:07;4.75;;;3.58;;
25127;SDS011;13107;51.304;6.866;2023-08-08T23:22:09;5.30;;;3.83;;
25127;SDS011;13107;51.304;6.866;2023-08-08T23:26:10;6.37;;;3.85;;
25127;SDS011;13107;51.304;6.866;2023-08-08T23:30:12;6.80;;;4.43;;
25127;SDS011;13107;51.304;6.866;2023-08-08T23:34:14;9.57;;;4.03;;
25127;SDS011;13107;51.304;6.866;2023-08-08T23:38:16;7.47;;;4.22;;
25127;SDS011;13107;51.304;6.866;2023-08-08T23:42:18;7.55;;;4.18;;
25127;SDS011;13107;51.304;6.866;2023-08-08T23:46:20;6.78;;;4.62;;
25127;SDS011;13107;51.304;6.866;2023-08-08T23:50:22;8.00;;;4.82;;
25127;SDS011;13107;51.304;6.866;2023-08-08T23:54:23;8.93;;;5.20;;
25127;SDS011;13107;51.304;6.866;2023-08-08T23:58:25;8.90;;;5.15;;
